Airport View

Enter AWOS ICAO identifier for current METAR.

ex. KFNL

KEKS 142115Z AUTO 18020G25KT 10SM CLR 10/M09 A3028 RMK AO2

14 Nov 2018 21:28

Frequency: 119.85

Phone: 406-682-3835

Other Area AWOS: KBZN - KDLN - KWYS - KLVM

TAF KEKS 141745Z 1418/1518 18015G25KT P6SM SCT200 FM150200 18009KT P6SM SCT200 FM150600 19015KT P6SM FEW100